Bigues

FR-0592 · Lot, Occitanie, Francja

Historia METAR FR-0592 · Bigues

Poniżej widzisz METAR-y z ostatnich kilku dni. Wybierz rok, aby przeglądać starsze METAR-y, począwszy od roku 2007.

21 czerwca 2024

Czas Kod Pogoda Temp. Widoczność Sufit Wiatr METAR/SPECI
09:00
I
16 °C 10 km+ 600 ft 270° 270° 5 kt METAR LFSL 210700Z AUTO 27005KT 230V310 9999 OVC006/// //////TCU 16/14 Q1019 TEMPO 4000 SHRA BKN030
08:30
I
15 °C 10 km+ 500 ft 280° 280° 6 kt METAR LFSL 210630Z AUTO 28006KT 250V310 9999 BKN005/// OVC009/// //////CB 15/14 Q1019 TEMPO 4000 SHRA BKN030
08:00
L
15 °C 10 km+ 400 ft 290° 290° 4 kt METAR LFSL 210600Z AUTO 29004KT 240V310 9999 BKN004/// BKN026/// BKN031/// ///CB 15/14 Q1018 TEMPO 3000 BR BECMG SCT015 SCT045
07:30
L
15 °C 4,5 km 300 ft 270° 270° 4 kt METAR LFSL 210530Z AUTO 27004KT 220V310 4500 -RA BR BKN003/// OVC007/// ///TCU 15/15 Q1018 TEMPO BKN015TCU
07:00
L
15 °C 10 km+ 400 ft 270° 270° 4 kt METAR LFSL 210500Z AUTO 27004KT 230V300 9999 -RA OVC004 15/15 Q1018 TEMPO 4000 -SHRA BKN015TCU
06:30
I
15 °C 10 km+ 600 ft 280° 280° 4 kt METAR LFSL 210430Z AUTO 28004KT 240V310 9999 BKN006 OVC013 15/14 Q1018 TEMPO 4000 -SHRA BKN015TCU
06:00
I
15 °C 10 km+ 500 ft 270° 270° 4 kt METAR LFSL 210400Z AUTO 27004KT 240V300 9999 OVC005 15/14 Q1017 TEMPO 3000 BR
05:30
I
15 °C 10 km+ 500 ft 280° 280° 6 kt METAR LFSL 210330Z AUTO 28006KT 240V300 9999 BKN005 OVC010 15/15 Q1017 TEMPO 3000 BR
05:00
L
15 °C 10 km+ 400 ft 270° 270° 5 kt METAR LFSL 210300Z AUTO 27005KT 230V300 9999 OVC004 15/15 Q1017
04:30
L
15 °C 10 km+ 400 ft 240° 240° 4 kt METAR LFSL 210230Z AUTO 24004KT 210V280 9999 OVC004/// ///TCU 15/15 Q1017
04:00
L
15 °C 10 km+ 400 ft 240° 240° 5 kt METAR LFSL 210200Z AUTO 24005KT 190V290 9999 OVC004/// //////CB 15/15 Q1018
03:30
L
15 °C 10 km+ 300 ft 240° 240° 4 kt METAR LFSL 210130Z AUTO 24004KT 200V290 9999 OVC003/// ///CB 15/15 Q1018
03:00
L
15 °C 8 km 300 ft 230° 230° 6 kt METAR LFSL 210100Z AUTO 23006KT 150V290 8000 OVC003/// //////CB 15/15 Q1018
02:30
L
16 °C 10 km+ 300 ft 260° 260° 5 kt METAR LFSL 210030Z AUTO 26005KT 200V310 9999 OVC003/// ///TCU 16/15 Q1018
02:00
L
16 °C 10 km+ 300 ft 260° 260° 3 kt METAR LFSL 210000Z AUTO 26003KT 220V300 9999 OVC003 16/15 Q1018
01:30
L
16 °C 10 km+ 400 ft 280° 280° 4 kt METAR LFSL 202330Z AUTO 28004KT 240V310 9999 -RA OVC004 16/15 Q1017
01:00
L
16 °C 10 km+ 300 ft Var Var 2 kt METAR LFSL 202300Z AUTO VRB02KT 9999 OVC003/// //////TCU 16/15 Q1018
00:30
L
16 °C 10 km+ 300 ft 270° 270° 5 kt METAR LFSL 202230Z AUTO 27005KT 230V300 9999 BKN003/// BKN008/// OVC060/// ///CB 16/15 Q1018
00:00
L
16 °C 10 km+ 300 ft 250° 250° 3 kt METAR LFSL 202200Z AUTO 25003KT 210V300 9999 BKN003 BKN019 OVC060 16/15 Q1018

20 czerwca 2024

Czas Kod Pogoda Temp. Widoczność Sufit Wiatr METAR/SPECI
23:30
L
16 °C 10 km+ 400 ft Var Var 2 kt METAR LFSL 202130Z AUTO VRB02KT 9999 BKN004 BKN012 BKN020 16/15 Q1018
23:00
V
16 °C 10 km+ 4.000 ft 200° 200° 4 kt METAR LFSL 202100Z AUTO 20004KT 170V230 9999 SCT003 BKN040 OVC096 16/15 Q1018
22:30
V
16 °C 10 km+ 9.800 ft 110° 110° 4 kt METAR LFSL 202030Z AUTO 11004KT 070V210 9999 FEW003 OVC098 16/15 Q1017
22:00
V
16 °C 10 km+ - 070° 070° 5 kt METAR LFSL 202000Z AUTO 07005KT 040V100 9999 -RA //////TCU 16/15 Q1017 TEMPO 3000 SHRA BECMG SCT015 BKN050
21:30
V
16 °C 10 km+ - 120° 120° 2 kt METAR LFSL 201930Z AUTO 12002KT 9999 ///CB 16/15 Q1017 TEMPO 3000 SHRA BECMG SCT015 BKN050
21:00
V
16 °C 10 km+ - Var Var 2 kt METAR LFSL 201900Z AUTO VRB02KT 9999 ///TCU 16/15 Q1017 TEMPO 3000 SHRA BKN010 BKN015TCU
20:30
V
16 °C 10 km+ - 190° 190° 3 kt METAR LFSL 201830Z AUTO 19003KT 150V230 9999 ///TCU 16/15 Q1017 TEMPO 3000 SHRA BKN010 BKN015TCU
20:00
V
16 °C 10 km+ 10.000 ft 300° 300° 6 kt METAR LFSL 201800Z AUTO 30006KT 9999 FEW033 BKN100 16/15 Q1016 TEMPO 3000 SHRA BKN010 BKN015TCU
19:30
V
16 °C 10 km+ 10.000 ft 320° 320° 8 kt METAR LFSL 201730Z AUTO 32008KT 9999 RA FEW044/// SCT074/// OVC100/// ///TCU 16/16 Q1016 TEMPO 3000 SHRA BKN005 BKN015CB
19:00
V
16 °C 9 km - 270° 270° 4 kt METAR LFSL 201700Z AUTO 27004KT 230V300 9000 RA ///CB 16/16 Q1017 TEMPO 1200 TSRA BKN005 BKN015CB
18:30
M
17 °C 7 km 9.000 ft 310° 310° 6 kt METAR LFSL 201630Z AUTO 31006KT 7000 RA FEW009/// SCT023/// OVC090/// ///CB 17/16 Q1017 TEMPO 1200 TSRA BKN005 BKN015CB
18:00
M
17 °C 10 km+ 2.700 ft 320° 320° 6 kt METAR LFSL 201600Z AUTO 32006KT 9999 -RA FEW013/// SCT021/// OVC027/// ///CB 17/16 Q1017 TEMPO 1200 TSRA BKN005 BKN015CB
17:30
M
17 °C 10 km+ 2.000 ft 330° 330° 4 kt METAR LFSL 201530Z AUTO 33004KT 9999 RA FEW008/// BKN020/// OVC025/// //////TCU 17/15 Q1017 TEMPO 1200 TSRA BKN005 BKN015CB
17:00
I
17 °C 10 km+ 800 ft Var Var 3 kt METAR LFSL 201500Z AUTO VRB03KT 9999 -RA BKN008/// OVC016/// ///TCU 17/16 Q1017 TEMPO 1200 TSRA BKN005 BKN015CB
16:30
I
17 °C 10 km+ 900 ft 340° 340° 4 kt METAR LFSL 201430Z AUTO 34004KT 310V010 9999 BKN009 OVC015 17/16 Q1017 TEMPO 1200 TSRA BKN005 BKN015CB
16:00
V
18 °C 10 km+ 5.600 ft 310° 310° 6 kt METAR LFSL 201400Z AUTO 31006KT 280V360 9999 SCT008 OVC056 18/16 Q1017 TEMPO 3000 SHRA BKN005 BKN010TCU
15:30
I
18 °C 10 km+ 700 ft 330° 330° 6 kt METAR LFSL 201330Z AUTO 33006KT 290V010 9999 BKN007/// BKN012/// OVC060/// ///TCU 18/16 Q1017 TEMPO 3000 SHRA
15:00
I
17 °C 10 km+ 600 ft 300° 300° 5 kt METAR LFSL 201300Z AUTO 30005KT 260V340 9999 -RA BKN006/// BKN012/// BKN046/// ///TCU 17/15 Q1018 TEMPO 3000 SHRA
14:30
I
16 °C 4,3 km 700 ft 260° 260° 8 kt METAR LFSL 201230Z AUTO 26008KT 230V330 4300 RA BR BKN007/// BKN013/// BKN032/// ///TCU 16/15 Q1018 NOSIG
14:00
I
17 °C 9 km 600 ft 270° 270° 6 kt METAR LFSL 201200Z AUTO 27006KT 220V310 9000 RA BKN006/// OVC014/// ///TCU 17/16 Q1017 TEMPO 3000 SHRA
13:30
L
17 °C 10 km+ 400 ft 280° 280° 9 kt METAR LFSL 201130Z AUTO 28009KT 240V300 9999 -RA BKN004/// BKN010/// OVC015/// //////TCU 17/16 Q1017 TEMPO 3000 SHRA BKN005 BKN010TCU
13:00
I
17 °C 8 km 500 ft 290° 290° 9 kt METAR LFSL 201100Z AUTO 29009KT 240V310 8000 -RA BKN005/// OVC011/// ///CB 17/16 Q1017 TEMPO 3000 SHRA
12:30
I
17 °C 10 km+ 500 ft 280° 280° 8 kt METAR LFSL 201030Z AUTO 28008KT 240V310 9999 -RA BKN005/// BKN009/// BKN031/// ///CB 17/16 Q1016 TEMPO 3000 SHRA
12:00
I
17 °C 9 km 500 ft 280° 280° 6 kt METAR LFSL 201000Z AUTO 28006KT 230V300 9000 -RA BKN005/// BKN013/// BKN049/// //////CB 17/17 Q1016 TEMPO 1000 TSRA
11:30
I
17 °C 10 km+ 500 ft 280° 280° 3 kt METAR LFSL 200930Z AUTO 28003KT 250V310 9999 RA OVC005/// //////CB 17/16 Q1016 TEMPO 1000 TSRA
11:00
L
17 °C 5 km 200 ft 280° 280° 4 kt METAR LFSL 200900Z AUTO 28004KT 230V310 5000 -RA BR OVC002/// ///CB 17/17 Q1016 TEMPO 1000 TSRA
10:30
L
17 °C 10 km+ 200 ft Var Var 2 kt METAR LFSL 200830Z AUTO VRB02KT 9999 -RA OVC002/// //////CB 17/16 Q1015 TEMPO 1000 TSRA
10:00
L
17 °C 8 km 200 ft 320° 320° 5 kt METAR LFSL 200800Z AUTO 32005KT 290V360 8000 -RA OVC002/// ///TCU 17/17 Q1015 TEMPO 2000 SHRA BKN002 BKN050CB
09:30
L
17 °C 3,3 km 200 ft 310° 310° 7 kt METAR LFSL 200730Z AUTO 31007KT 3300 -RA BR OVC002/// //////TCU 17/16 Q1015 TEMPO 2000 SHRA BKN002 BKN050CB
09:00
L
17 °C 3,9 km - 330° 330° 4 kt METAR LFSL 200700Z AUTO 33004KT 310V010 3900 -RA BR VV/// ///TCU 17/16 Q1015 TEMPO 0800 FG BKN002 BKN050CB
08:30
L
17 °C 1,4 km - 290° 290° 5 kt METAR LFSL 200630Z AUTO 29005KT 260V320 1600 1400 R29///// BR VV/// ///CB 17/16 Q1016 TEMPO SHRA BKN002 BKN050CB
08:00
L
17 °C 1,6 km - 290° 290° 6 kt METAR LFSL 200600Z AUTO 29006KT 260V320 1600 BR VV/// 17/16 Q1016 TEMPO SHRA BKN002 BKN050CB
07:30
L
17 °C 8 km 100 ft 290° 290° 4 kt METAR LFSL 200530Z AUTO 29004KT 250V320 8000 -RA OVC001 17/17 Q1016 TEMPO 0500 -TSRA BKN002 BKN010 BKN050CB
07:00
L
17 °C 9 km 100 ft Var Var 3 kt METAR LFSL 200500Z AUTO VRB03KT 9000 OVC001 17/17 Q1016 TEMPO 0500 -TSRA BKN002 BKN010 BKN050CB
06:30
L
17 °C 10 km+ 100 ft 080° 080° 3 kt METAR LFSL 200430Z AUTO 08003KT 030V110 9999 OVC001 17/17 Q1015 TEMPO 0500 -TSRA BKN002 BKN010 BKN050CB
06:00
L
17 °C 10 km+ 200 ft 290° 290° 3 kt METAR LFSL 200400Z AUTO 29003KT 230V340 9999 OVC002/// ///TCU 17/16 Q1016 TEMPO 0500 -TSRA BKN002 BKN010 BKN050CB
05:30
L
17 °C 10 km+ 400 ft Var Var 3 kt METAR LFSL 200330Z AUTO VRB03KT 9999 RA BKN004/// OVC038/// //////CB 17/17 Q1015 TEMPO 0500 -TSRA
05:00
L
18 °C 10 km+ 200 ft 300° 300° 4 kt METAR LFSL 200300Z AUTO 30004KT 230V340 9999 BKN002/// BKN008/// OVC036/// //////CB 18/17 Q1015 TEMPO 0500 -TSRA
04:30
V
17 °C 10 km+ 3.200 ft Var Var 2 kt METAR LFSL 200230Z AUTO VRB02KT 9999 SCT003/// BKN032/// BKN048/// //////CB 17/17 Q1016
04:00
V
17 °C 10 km+ 10.000 ft Var Var 1 kt METAR LFSL 200200Z AUTO VRB01KT 9999 -RA FEW040/// SCT052/// OVC100/// ///CB 17/16 Q1016
03:30
V
17 °C 10 km+ 4.400 ft 260° 260° 4 kt METAR LFSL 200130Z AUTO 26004KT 230V300 9999 -RA FEW028/// BKN044/// BKN050/// ///CB 17/16 Q1015
03:00
V
18 °C 10 km+ - 340° 340° 4 kt METAR LFSL 200100Z AUTO 34004KT 290V050 9999 RA //////CB 18/17 Q1015
02:30
V
18 °C 10 km+ 12.000 ft 310° 310° 5 kt METAR LFSL 200030Z AUTO 31005KT 240V350 9999 RA VCTS FEW004/// OVC120/// ///CB 18/17 Q1016
02:00
I
19 °C 3,7 km 1.000 ft Var Var 3 kt METAR LFSL 200000Z AUTO VRB03KT 3700 +TSRA BR BKN010/// BKN016/// BKN022/// ///CB 19/17 Q1016
01:30
I
19 °C 10 km+ 700 ft 020° 020° 3 kt METAR LFSL 192330Z AUTO 02003KT 340V050 9999 VCTS OVC007/// //////CB 19/17 Q1016
01:00
I
19 °C 10 km+ 800 ft 340° 340° 5 kt METAR LFSL 192300Z AUTO 34005KT 310V010 9999 BKN008/// BKN021/// OVC028/// ///CB 19/17 Q1016
00:30
V
19 °C 10 km+ 4.900 ft 330° 330° 6 kt METAR LFSL 192230Z AUTO 33006KT 9999 FEW008/// SCT024/// BKN049/// //////CB 19/17 Q1016
00:00
V
19 °C 10 km+ 4.600 ft 310° 310° 6 kt METAR LFSL 192200Z AUTO 31006KT 9999 OVC046/// //////CB 19/17 Q1015

19 czerwca 2024

Czas Kod Pogoda Temp. Widoczność Sufit Wiatr METAR/SPECI
23:30
V
20 °C 10 km+ 4.100 ft Var Var 3 kt METAR LFSL 192130Z AUTO VRB03KT 9999 BKN041/// //////CB 20/17 Q1016
23:00
V
20 °C 10 km+ - Var Var 1 kt METAR LFSL 192100Z AUTO VRB01KT 9999 //////CB 20/16 Q1015
22:30
V
20 °C 10 km+ 11.000 ft 300° 300° 6 kt METAR LFSL 192030Z AUTO 30006KT 9999 FEW042/// SCT066/// BKN110/// ///CB 20/17 Q1014
22:00
V
21 °C 10 km+ 3.900 ft Var Var 3 kt METAR LFSL 192000Z AUTO VRB03KT 9999 BKN039/// BKN049/// OVC056/// //////CB 21/17 Q1015 TEMPO 4000 SHRA BECMG NSC
21:30
V
21 °C 10 km+ 5.400 ft 300° 300° 3 kt METAR LFSL 191930Z AUTO 30003KT 9999 FEW040 SCT046 BKN054 21/17 Q1015 TEMPO 4000 SHRA BKN030TCU
21:00
V
21 °C 10 km+ 3.500 ft 310° 310° 4 kt METAR LFSL 191900Z AUTO 31004KT 9999 BKN035 BKN060 BKN100 21/17 Q1015 TEMPO VRB15G25KT 4000 SHRA BKN030TCU
20:30
V
22 °C 10 km+ - 350° 350° 5 kt METAR LFSL 191830Z AUTO 35005KT 9999 FEW035 22/17 Q1014 TEMPO VRB15G25KT 4000 SHRA BKN030TCU
20:00
V
22 °C 10 km+ 3.400 ft 320° 320° 9 kt METAR LFSL 191800Z AUTO 32009KT 290V360 9999 BKN034 BKN044 BKN052 22/17 Q1014 TEMPO VRB15G25KT 1000 TSRA BKN010 BKN020CB
19:30
V
23 °C 10 km+ 3.100 ft 330° 330° 9 kt METAR LFSL 191730Z AUTO 33009KT 9999 BKN031 OVC046 23/17 Q1014 TEMPO VRB15G25KT 1000 TSRA BKN010 BKN020CB
19:00
V
24 °C 10 km+ 3.200 ft 290° 290° 5 kt METAR LFSL 191700Z AUTO 29005KT 250V320 9999 FEW026/// BKN032/// BKN039/// //////TCU 24/16 Q1014 TEMPO VRB15G25KT 1000 TSRA BKN010 BKN020CB
18:30
V
24 °C 10 km+ 3.100 ft 310° 310° 7 kt METAR LFSL 191630Z AUTO 31007KT 9999 BKN031/// OVC041/// ///CB 24/17 Q1014 TEMPO VRB15G25KT 1000 TSRA BKN010 BKN020CB
18:00
V
24 °C 10 km+ - 320° 320° 6 kt METAR LFSL 191600Z AUTO 32006KT 290V350 9999 FEW041 SCT064 24/18 Q1014 TEMPO VRB15G25KT 1000 TSRA BKN010 BKN020CB
17:30
V
23 °C 10 km+ 4.400 ft 330° 330° 6 kt METAR LFSL 191530Z AUTO 33006KT 290V010 9999 SCT038/// BKN044/// BKN054/// //////CB 23/18 Q1014 TEMPO VRB15G25KT 1000 TSRA BKN010 BKN020CB
17:00
V
23 °C 10 km+ 4.000 ft 290° 290° 8 kt METAR LFSL 191500Z AUTO 29008KT 260V320 9999 SCT032/// BKN040/// BKN052/// ///TCU 23/18 Q1014 TEMPO VRB15G25KT 1000 TSRA BKN010 BKN020CB
16:30
V
23 °C 10 km+ 3.100 ft 270° 270° 7 kt METAR LFSL 191430Z AUTO 27007KT 230V310 9999 BKN031/// BKN039/// OVC049/// ///CB 23/18 Q1014 TEMPO VRB15G25KT 1000 TSRA BKN010 BKN020CB
16:00
V
24 °C 10 km+ 3.700 ft 320° 320° 6 kt METAR LFSL 191400Z AUTO 32006KT 290V350 9999 FEW029 BKN037 BKN046 24/18 Q1014 TEMPO VRB15G25KT 1000 TSRA BKN010 BKN020CB
15:30
V
25 °C 10 km+ - 340° 340° 3 kt METAR LFSL 191330Z AUTO 34003KT 280V080 9999 FEW049 SCT060 25/17 Q1014 TEMPO VRB15G25KT 1000 TSRA BKN010 BKN020CB
15:00
V
24 °C 10 km+ 3.100 ft Var Var 3 kt METAR LFSL 191300Z AUTO VRB03KT 9999 BKN031 BKN039 BKN045 24/17 Q1014 TEMPO VRB15G25KT 1000 TSRA BKN010 BKN020CB
14:30
V
24 °C 10 km+ 4.000 ft Var Var 2 kt METAR LFSL 191230Z AUTO VRB02KT 9999 FEW026/// BKN040/// OVC047/// ///CB 24/17 Q1014 TEMPO VRB15G25KT 1000 TSRA BKN010 BKN020CB
14:00
V
24 °C 10 km+ 3.600 ft Var Var 3 kt METAR LFSL 191200Z AUTO VRB03KT 9999 BKN036/// BKN044/// OVC068/// //////TCU 24/17 Q1014 TEMPO 4000 SHRA
13:30
V
23 °C 10 km+ 4.100 ft 260° 260° 3 kt METAR LFSL 191130Z AUTO 26003KT 170V310 9999 FEW026 SCT032 OVC041 23/16 Q1014 TEMPO 4000 SHRA BKN030TCU
13:00
V
24 °C 10 km+ 3.600 ft Var Var 3 kt METAR LFSL 191100Z AUTO VRB03KT 9999 SCT030/// BKN036/// BKN066/// //////CB 24/17 Q1014 BECMG NSC
12:30
V
25 °C 10 km+ 7.000 ft 100° 100° 3 kt METAR LFSL 191030Z AUTO 10003KT 050V150 9999 FEW025/// BKN070/// //////CB 25/17 Q1014 BECMG NSC
12:00
V
24 °C 10 km+ 6.400 ft Var Var 3 kt METAR LFSL 191000Z AUTO VRB03KT 9999 FEW023 BKN064 BKN074 24/17 Q1014 NOSIG
11:30
V
22 °C 10 km+ - 150° 150° 3 kt METAR LFSL 190930Z AUTO 15003KT 090V240 CAVOK 22/16 Q1013 NOSIG
11:00
V
22 °C 10 km+ - 120° 120° 7 kt METAR LFSL 190900Z AUTO 12007KT 080V150 CAVOK 22/16 Q1013 NOSIG
10:30
V
21 °C 10 km+ - 120° 120° 5 kt METAR LFSL 190830Z AUTO 12005KT 070V180 CAVOK 21/17 Q1013 NOSIG
10:00
V
20 °C 10 km+ 8.600 ft 060° 060° 4 kt METAR LFSL 190800Z AUTO 06004KT 030V120 9999 FEW009 BKN086 20/17 Q1013 NOSIG
09:30
V
19 °C 10 km+ 9.000 ft Var Var 3 kt METAR LFSL 190730Z AUTO VRB03KT 9999 FEW007 BKN090 19/18 Q1013 NOSIG
09:00
V
19 °C 10 km+ 4.400 ft 340° 340° 7 kt METAR LFSL 190700Z AUTO 34007KT 9999 -RA FEW010/// SCT030/// BKN044/// ///CB 19/17 Q1013 TEMPO 1000 TSRA BECMG NSC
08:30
V
20 °C 10 km+ - 330° 330° 6 kt METAR LFSL 190630Z AUTO 33006KT 280V010 9999 ///CB 20/17 Q1013 TEMPO 1000 TSRA BECMG NSC
08:00
V
20 °C 10 km+ - Var Var 2 kt METAR LFSL 190600Z AUTO VRB02KT 9999 //////CB 20/17 Q1013 TEMPO 1000 TSRA
Zgłoś zmianę